Time;durP1;ratioP1;P1;durP2;ratioP2;P2;SDS_P1;SDS_P2;PMS_P1;PMS_P2;Temp;Humidity;BMP_temperature;BMP_pressure;BME280_temperature;BME280_humidity;BME280_pressure;Samples;Min_cycle;Max_cycle;Signal;HPM_P1;HPM_P2
2023/02/01 00:01:13;;;;;;;19.37;4.33;;;;;;;3.91;100.00;100355.44;5002234;28;20881;-85
2023/02/01 00:03:41;;;;;;;20.53;4.57;;;;;;;3.97;100.00;100357.69;5001808;28;20467;-85
2023/02/01 00:06:08;;;;;;;13.77;3.67;;;;;;;3.90;100.00;100359.88;5004614;28;20483;-86
2023/02/01 00:08:36;;;;;;;16.30;4.27;;;;;;;3.94;100.00;100344.66;5007123;28;20444;-84
2023/02/01 00:11:04;;;;;;;12.10;3.67;;;;;;;4.06;100.00;100353.63;5005944;28;20931;-85
2023/02/01 00:13:32;;;;;;;21.03;4.07;;;;;;;3.96;100.00;100353.38;5006335;28;20516;-86
2023/02/01 00:16:04;;;;;;;20.20;4.13;;;;;;;4.06;100.00;100359.78;5005783;28;20472;-85
2023/02/01 00:18:31;;;;;;;19.57;4.03;;;;;;;4.04;100.00;100366.94;4989754;28;20445;-84
2023/02/01 00:20:59;;;;;;;16.70;3.53;;;;;;;4.04;100.00;100366.94;4998504;28;20475;-86
2023/02/01 00:23:26;;;;;;;9.10;4.57;;;;;;;4.12;100.00;100363.84;4996566;28;20484;-85
2023/02/01 00:25:53;;;;;;;15.50;4.60;;;;;;;4.15;100.00;100377.72;5005389;28;20506;-85
2023/02/01 00:28:19;;;;;;;24.93;5.63;;;;;;;4.18;100.00;100381.13;5006108;28;20471;-84
2023/02/01 00:30:46;;;;;;;9.20;3.60;;;;;;;4.17;100.00;100368.81;5005541;28;20479;-84
2023/02/01 00:33:12;;;;;;;17.53;5.23;;;;;;;4.07;100.00;100360.63;5005670;28;20523;-85
2023/02/01 00:35:39;;;;;;;16.43;4.60;;;;;;;4.20;100.00;100374.78;5005114;28;20475;-84
2023/02/01 00:38:07;;;;;;;18.87;4.13;;;;;;;4.15;100.00;100358.34;5006233;28;20488;-85
2023/02/01 00:40:34;;;;;;;15.60;4.67;;;;;;;4.08;100.00;100367.59;5005237;28;20487;-85
2023/02/01 00:43:00;;;;;;;16.77;4.00;;;;;;;4.08;100.00;100354.38;5006078;28;20476;-84
2023/02/01 00:45:27;;;;;;;25.67;4.63;;;;;;;4.05;100.00;100352.78;5005082;28;20968;-84
2023/02/01 00:47:54;;;;;;;10.93;3.87;;;;;;;3.88;100.00;100350.34;5012309;28;20451;-84
2023/02/01 00:50:20;;;;;;;16.47;4.63;;;;;;;3.94;100.00;100349.94;5020072;28;20467;-84
2023/02/01 00:52:47;;;;;;;16.10;3.97;;;;;;;3.89;100.00;100344.09;5005499;28;20512;-85
2023/02/01 00:55:15;;;;;;;16.00;3.60;;;;;;;3.95;100.00;100339.28;5005385;28;20440;-84
2023/02/01 00:57:42;;;;;;;9.97;4.33;;;;;;;3.97;100.00;100352.41;5005537;28;20467;-84
2023/02/01 01:00:11;;;;;;;11.40;3.60;;;;;;;3.96;100.00;100348.06;5004976;28;20495;-85
2023/02/01 01:02:38;;;;;;;19.60;3.60;;;;;;;3.98;100.00;100342.69;5005595;28;20460;-84
2023/02/01 01:05:05;;;;;;;11.13;3.50;;;;;;;3.99;100.00;100341.72;5005009;28;20874;-85
2023/02/01 01:07:31;;;;;;;16.20;4.20;;;;;;;3.99;100.00;100347.03;5005438;28;20468;-85
2023/02/01 01:09:58;;;;;;;13.83;4.17;;;;;;;4.03;100.00;100327.34;5005296;28;20447;-84
2023/02/01 01:12:26;;;;;;;15.43;4.73;;;;;;;4.10;100.00;100340.13;5004590;28;20479;-84
2023/02/01 01:14:52;;;;;;;25.97;4.77;;;;;;;4.04;100.00;100335.19;5005617;28;20463;-83
2023/02/01 01:17:19;;;;;;;14.30;3.70;;;;;;;4.01;100.00;100335.41;5004177;28;20485;-84
2023/02/01 01:19:46;;;;;;;14.50;4.33;;;;;;;4.03;100.00;100322.06;5004669;28;20543;-84
2023/02/01 01:22:13;;;;;;;14.93;4.20;;;;;;;4.05;100.00;100328.97;5004635;28;20500;-84
2023/02/01 01:24:39;;;;;;;16.53;4.37;;;;;;;3.98;100.00;100325.03;5005310;28;20468;-83
2023/02/01 01:27:06;;;;;;;14.40;4.77;;;;;;;4.12;100.00;100335.56;5004393;28;20511;-84
2023/02/01 01:29:34;;;;;;;18.07;4.80;;;;;;;4.14;100.00;100335.47;5004747;28;20444;-84
2023/02/01 01:32:00;;;;;;;21.03;6.13;;;;;;;4.07;100.00;100331.53;5004037;28;20504;-84
2023/02/01 01:34:29;;;;;;;18.27;4.20;;;;;;;4.15;100.00;100342.47;5004714;28;20501;-84
2023/02/01 01:36:56;;;;;;;19.43;4.70;;;;;;;4.10;100.00;100347.22;4987982;28;20556;-83
2023/02/01 01:39:23;;;;;;;13.77;4.73;;;;;;;4.06;100.00;100341.25;5004600;28;20448;-84
2023/02/01 01:41:49;;;;;;;22.40;4.20;;;;;;;4.14;100.00;100338.97;5003495;28;20522;-84
2023/02/01 01:44:53;;;;;;;21.53;3.90;;;;;;;4.06;100.00;100343.03;4986009;28;20437;-84
2023/02/01 01:47:21;;;;;;;22.50;4.87;;;;;;;3.89;100.00;100331.72;5001503;28;20631;-85
2023/02/01 01:49:48;;;;;;;16.17;4.40;;;;;;;4.02;100.00;100329.16;5003930;28;20798;-84
2023/02/01 01:52:15;;;;;;;17.00;5.00;;;;;;;4.02;100.00;100326.50;5004045;28;20901;-83
2023/02/01 01:54:44;;;;;;;21.70;4.87;;;;;;;4.07;100.00;100328.88;5004276;28;20468;-83
2023/02/01 01:57:13;;;;;;;19.23;4.43;;;;;;;4.13;100.00;100324.06;5003378;28;20574;-83
2023/02/01 01:59:42;;;;;;;18.67;4.40;;;;;;;4.00;100.00;100309.88;5003605;28;20522;-85
2023/02/01 02:02:09;;;;;;;10.83;4.50;;;;;;;4.13;100.00;100308.19;4991807;28;20476;-84
2023/02/01 02:04:37;;;;;;;14.17;5.07;;;;;;;4.20;100.00;100307.75;4999690;28;20464;-83
2023/02/01 02:07:06;;;;;;;19.50;3.70;;;;;;;4.19;100.00;100299.00;4999395;28;20504;-83
2023/02/01 02:09:33;;;;;;;15.33;4.20;;;;;;;4.14;100.00;100296.63;5003361;28;20999;-83
2023/02/01 02:11:59;;;;;;;14.47;3.70;;;;;;;4.20;100.00;100295.41;4991041;28;20507;-84
2023/02/01 02:14:26;;;;;;;17.13;5.03;;;;;;;4.28;100.00;100294.91;5004324;28;20536;-84
2023/02/01 02:17:05;;;;;;;20.00;4.70;;;;;;;4.23;100.00;100281.13;5003446;28;20484;-84
2023/02/01 02:20:13;;;;;;;11.90;4.37;;;;;;;4.23;100.00;100294.34;5003831;28;20463;-84
2023/02/01 02:23:06;;;;;;;15.43;4.50;;;;;;;4.22;100.00;100288.22;4991069;28;20468;-83
2023/02/01 02:25:54;;;;;;;21.10;5.10;;;;;;;4.28;100.00;100279.03;4983914;28;20892;-83
2023/02/01 02:28:40;;;;;;;16.63;4.33;;;;;;;4.32;100.00;100270.78;4995572;28;20464;-83
2023/02/01 02:31:40;;;;;;;10.33;4.17;;;;;;;4.43;100.00;100266.59;5003294;28;21086;-83
2023/02/01 02:34:14;;;;;;;14.53;4.77;;;;;;;4.31;100.00;100265.59;4996857;28;20527;-82
2023/02/01 02:36:47;;;;;;;14.57;4.57;;;;;;;4.37;100.00;100269.63;5003417;28;20476;-82
2023/02/01 02:39:21;;;;;;;14.90;3.40;;;;;;;4.49;100.00;100268.81;5003951;28;20440;-83
2023/02/01 02:47:30;;;;;;;13.87;4.83;;;;;;;4.60;100.00;100252.22;5003385;28;20499;-84
2023/02/01 02:55:40;;;;;;;19.80;5.20;;;;;;;4.71;100.00;100241.78;4947454;28;20478;-84
2023/02/01 03:06:25;;;;;;;17.30;3.90;;;;;;;4.78;100.00;100224.50;5002722;28;20494;-84
2023/02/01 03:08:53;;;;;;;20.17;5.10;;;;;;;4.67;100.00;100216.44;5003228;28;20440;-84
2023/02/01 03:11:21;;;;;;;10.90;3.60;;;;;;;4.78;100.00;100228.97;5002693;28;21020;-83
2023/02/01 03:13:50;;;;;;;17.07;4.90;;;;;;;4.76;100.00;100223.78;5003447;28;20499;-83
2023/02/01 03:16:25;;;;;;;12.17;3.70;;;;;;;4.71;100.00;100226.72;5003240;28;20484;-84
2023/02/01 03:18:56;;;;;;;23.20;5.40;;;;;;;4.86;100.00;100232.78;5002670;28;20555;-84
2023/02/01 03:21:26;;;;;;;20.20;4.73;;;;;;;4.87;100.00;100225.69;5002452;28;20949;-84
2023/02/01 03:23:54;;;;;;;17.33;4.03;;;;;;;4.92;100.00;100223.56;5003555;28;20479;-83
2023/02/01 03:26:23;;;;;;;11.97;3.50;;;;;;;4.95;100.00;100220.72;4991942;28;20509;-84
2023/02/01 03:28:55;;;;;;;26.13;5.50;;;;;;;4.85;100.00;100220.47;4989144;28;20456;-84
2023/02/01 03:31:22;;;;;;;21.53;3.80;;;;;;;4.83;100.00;100206.50;5001695;28;20507;-84
2023/02/01 03:33:49;;;;;;;17.13;3.90;;;;;;;4.83;100.00;100203.00;5003022;28;20527;-84
2023/02/01 03:36:22;;;;;;;20.27;5.40;;;;;;;4.92;100.00;100198.88;5002515;28;20488;-85
2023/02/01 03:38:54;;;;;;;11.80;4.67;;;;;;;4.89;100.00;100184.88;5002873;28;21016;-84
2023/02/01 03:41:27;;;;;;;20.33;4.70;;;;;;;4.93;100.00;100192.63;5002359;28;20499;-85
2023/02/01 03:43:56;;;;;;;14.47;4.03;;;;;;;4.87;100.00;100175.34;5002800;28;20480;-84
2023/02/01 03:46:32;;;;;;;17.43;4.13;;;;;;;4.86;100.00;100174.50;5001928;28;20506;-84
2023/02/01 03:49:01;;;;;;;16.03;4.23;;;;;;;4.84;100.00;100176.44;5001598;28;20472;-84
2023/02/01 03:51:28;;;;;;;17.40;4.43;;;;;;;4.80;100.00;100174.91;5002100;28;20495;-84
2023/02/01 03:53:56;;;;;;;18.00;4.87;;;;;;;4.96;100.00;100179.16;5002605;28;21071;-84
2023/02/01 03:56:24;;;;;;;15.00;3.90;;;;;;;4.77;100.00;100172.47;5002268;28;20484;-84
2023/02/01 03:58:59;;;;;;;15.23;3.63;;;;;;;4.78;100.00;100165.41;5002071;28;20535;-85
2023/02/01 04:01:27;;;;;;;13.17;3.47;;;;;;;4.92;100.00;100169.75;5001763;28;20567;-85
2023/02/01 04:03:54;;;;;;;15.40;3.37;;;;;;;4.90;100.00;100170.69;5002238;28;20523;-84
2023/02/01 04:06:20;;;;;;;21.33;5.07;;;;;;;4.88;100.00;100158.50;5001912;28;20551;-84
2023/02/01 04:08:47;;;;;;;13.00;3.00;;;;;;;5.04;100.00;100169.72;5002749;28;20543;-84
2023/02/01 04:11:16;;;;;;;12.10;4.37;;;;;;;4.98;100.00;100154.28;5001620;28;20488;-84
2023/02/01 04:13:42;;;;;;;17.30;5.40;;;;;;;5.02;100.00;100158.41;5002646;28;20511;-84
2023/02/01 04:16:09;;;;;;;10.97;3.00;;;;;;;4.98;100.00;100148.09;5001970;28;20503;-85
2023/02/01 04:18:35;;;;;;;16.67;3.40;;;;;;;4.94;100.00;100144.00;5002457;28;20487;-84
2023/02/01 04:21:05;;;;;;;13.17;3.77;;;;;;;5.04;100.00;100143.22;5001275;28;20497;-84
2023/02/01 04:23:32;;;;;;;16.23;4.23;;;;;;;4.88;100.00;100145.28;5002636;28;20456;-85
2023/02/01 04:26:02;;;;;;;21.27;3.80;;;;;;;5.00;100.00;100144.41;5001458;28;20486;-84
2023/02/01 04:28:30;;;;;;;20.30;4.67;;;;;;;4.96;100.00;100140.25;5002265;28;20506;-83
2023/02/01 04:30:57;;;;;;;13.13;3.80;;;;;;;4.99;100.00;100142.69;5001911;28;20476;-84
2023/02/01 04:33:24;;;;;;;17.53;3.33;;;;;;;4.90;100.00;100151.31;5001935;28;20535;-85
2023/02/01 04:35:50;;;;;;;19.43;4.40;;;;;;;4.94;100.00;100133.38;5001075;28;20523;-84
2023/02/01 04:38:17;;;;;;;14.97;3.50;;;;;;;4.84;100.00;100133.16;5002918;28;20448;-84
2023/02/01 04:40:44;;;;;;;14.57;3.60;;;;;;;4.97;100.00;100130.53;5001096;28;20545;-84
2023/02/01 04:43:10;;;;;;;9.90;2.93;;;;;;;4.96;100.00;100136.78;4998228;28;20887;-84
2023/02/01 04:45:38;;;;;;;15.53;3.53;;;;;;;4.91;100.00;100142.38;5001650;28;21002;-83
2023/02/01 04:48:06;;;;;;;10.50;3.13;;;;;;;4.92;100.00;100146.75;5001986;28;20460;-83
2023/02/01 04:50:32;;;;;;;24.80;4.70;;;;;;;4.92;100.00;100140.59;5000927;28;20545;-83
2023/02/01 04:52:59;;;;;;;19.23;3.97;;;;;;;4.74;100.00;100138.28;5005775;28;20872;-84
2023/02/01 04:55:25;;;;;;;15.40;4.13;;;;;;;4.61;100.00;100145.38;5005364;28;20512;-84
2023/02/01 04:57:52;;;;;;;17.97;3.80;;;;;;;4.57;100.00;100128.84;5004801;28;20708;-84
2023/02/01 05:00:19;;;;;;;14.53;4.20;;;;;;;4.58;100.00;100134.97;5005143;28;20865;-85
2023/02/01 05:02:47;;;;;;;9.30;3.33;;;;;;;4.59;100.00;100131.38;4995929;28;20973;-87
2023/02/01 05:05:14;;;;;;;16.40;4.23;;;;;;;4.57;100.00;100131.50;4998063;28;20491;-87
2023/02/01 05:07:42;;;;;;;23.63;6.03;;;;;;;4.60;100.00;100138.34;4987726;28;20457;-89
2023/02/01 05:10:10;;;;;;;21.77;4.70;;;;;;;4.44;100.00;100134.09;5002333;28;20459;-91
2023/02/01 05:15:21;;;;;;;10.93;3.50;;;;;;;4.45;100.00;100124.38;4993600;28;20963;-89
2023/02/01 05:17:49;;;;;;;14.27;3.50;;;;;;;4.38;100.00;100125.75;5003698;28;20470;-89
2023/02/01 05:20:16;;;;;;;18.63;4.53;;;;;;;4.48;100.00;100126.84;5002997;28;20460;-87
2023/02/01 05:22:43;;;;;;;14.37;5.73;;;;;;;4.43;100.00;100127.13;4994813;28;20485;-86
2023/02/01 05:25:10;;;;;;;17.90;4.60;;;;;;;4.47;100.00;100119.84;5000371;28;20939;-85
2023/02/01 05:27:36;;;;;;;16.90;4.93;;;;;;;4.40;100.00;100103.50;5001592;28;20563;-87
2023/02/01 05:30:04;;;;;;;22.13;4.60;;;;;;;4.44;100.00;100101.50;5003281;28;20453;-88
2023/02/01 05:32:30;;;;;;;13.23;3.53;;;;;;;4.39;100.00;100115.03;5003250;28;20480;-89
2023/02/01 05:34:58;;;;;;;18.87;4.60;;;;;;;4.53;100.00;100106.16;5002696;28;20531;-87
2023/02/01 05:37:25;;;;;;;10.93;3.50;;;;;;;4.44;100.00;100099.69;5001716;28;21016;-83
2023/02/01 05:39:52;;;;;;;19.03;4.37;;;;;;;4.45;100.00;100096.09;5004232;28;20488;-84
2023/02/01 05:42:19;;;;;;;17.40;4.83;;;;;;;4.37;100.00;100098.41;5001540;28;20511;-84
2023/02/01 05:44:45;;;;;;;20.97;5.03;;;;;;;4.49;100.00;100097.56;5004006;28;20428;-85
2023/02/01 05:47:12;;;;;;;17.00;4.00;;;;;;;4.50;100.00;100101.09;5000705;28;20499;-85
2023/02/01 05:49:39;;;;;;;16.73;3.80;;;;;;;4.49;100.00;100094.94;4998302;28;20471;-85
2023/02/01 05:52:07;;;;;;;14.20;3.80;;;;;;;4.44;100.00;100096.22;5001126;28;21121;-83
2023/02/01 05:54:33;;;;;;;16.23;4.50;;;;;;;4.48;100.00;100082.66;5003446;28;20511;-84
2023/02/01 05:57:00;;;;;;;21.47;4.30;;;;;;;4.49;100.00;100094.09;5001041;28;20512;-83
2023/02/01 05:59:27;;;;;;;16.93;5.23;;;;;;;4.56;100.00;100099.81;5003326;28;20526;-81
2023/02/01 06:01:53;;;;;;;17.43;4.50;;;;;;;4.64;100.00;100103.63;5001890;28;20490;-85
2023/02/01 06:04:20;;;;;;;16.77;4.73;;;;;;;4.65;100.00;100091.22;4991245;28;20484;-84
2023/02/01 06:06:47;;;;;;;19.23;4.27;;;;;;;4.67;100.00;100090.19;4989489;28;20484;-84
2023/02/01 06:09:15;;;;;;;12.00;3.90;;;;;;;4.63;100.00;100088.69;5002507;28;20488;-84
2023/02/01 06:11:42;;;;;;;19.70;4.53;;;;;;;4.72;100.00;100076.59;4998455;28;20484;-83
2023/02/01 06:14:08;;;;;;;20.47;5.00;;;;;;;4.61;100.00;100076.53;4984906;28;20499;-84
2023/02/01 06:16:35;;;;;;;21.77;5.43;;;;;;;4.65;100.00;100083.28;4997027;28;20484;-83
2023/02/01 06:19:02;;;;;;;15.23;3.73;;;;;;;4.76;100.00;100091.34;4985288;28;20517;-83
2023/02/01 06:21:28;;;;;;;16.27;4.60;;;;;;;4.69;100.00;100095.38;4997711;28;20472;-85
2023/02/01 06:23:57;;;;;;;16.17;4.30;;;;;;;4.70;100.00;100075.88;4984577;28;20461;-83
2023/02/01 06:26:25;;;;;;;18.70;4.40;;;;;;;4.70;100.00;100099.69;4989116;28;20484;-83
2023/02/01 06:28:52;;;;;;;25.17;4.50;;;;;;;4.66;100.00;100095.59;4984323;28;20449;-82
2023/02/01 06:31:18;;;;;;;13.43;3.47;;;;;;;4.68;100.00;100104.25;4983656;28;20520;-82
2023/02/01 06:33:48;;;;;;;18.40;4.43;;;;;;;4.76;100.00;100094.00;4983406;28;20990;-82
2023/02/01 06:36:16;;;;;;;14.50;3.97;;;;;;;4.89;100.00;100105.41;4982917;28;20483;-82
2023/02/01 06:38:42;;;;;;;15.10;3.73;;;;;;;4.68;100.00;100102.44;4984170;28;20528;-83
2023/02/01 06:41:09;;;;;;;15.93;5.10;;;;;;;4.78;100.00;100107.97;4984913;28;21003;-83
2023/02/01 06:43:38;;;;;;;14.63;4.20;;;;;;;4.77;100.00;100108.06;5002331;28;20457;-84
2023/02/01 06:46:06;;;;;;;12.73;3.57;;;;;;;4.82;100.00;100117.38;5002784;28;20472;-84
2023/02/01 06:48:34;;;;;;;13.73;5.90;;;;;;;4.89;100.00;100129.25;5020959;28;20462;-83
2023/02/01 06:51:00;;;;;;;20.70;6.43;;;;;;;4.89;100.00;100126.59;5022016;28;20515;-83
2023/02/01 06:53:27;;;;;;;13.67;3.70;;;;;;;4.83;100.00;100113.78;5021952;28;20494;-83
2023/02/01 06:55:55;;;;;;;20.50;4.23;;;;;;;4.93;100.00;100119.31;5021538;28;20471;-83
2023/02/01 06:58:22;;;;;;;18.20;4.13;;;;;;;4.86;100.00;100128.59;5022118;28;20545;-83
2023/02/01 07:00:53;;;;;;;15.97;4.83;;;;;;;4.91;100.00;100129.13;5002816;28;20464;-82
2023/02/01 07:03:20;;;;;;;18.70;4.03;;;;;;;4.90;100.00;100127.47;5002019;28;20455;-83
2023/02/01 07:05:47;;;;;;;12.30;3.43;;;;;;;4.82;100.00;100135.94;5001280;28;20475;-83
2023/02/01 07:08:14;;;;;;;21.93;4.43;;;;;;;5.00;100.00;100127.66;5002673;28;20475;-84
2023/02/01 07:10:40;;;;;;;25.37;4.77;;;;;;;4.95;100.00;100127.13;5001568;28;20474;-83
2023/02/01 07:13:07;;;;;;;26.00;4.83;;;;;;;4.96;100.00;100132.31;5001510;28;20456;-84
2023/02/01 07:15:34;;;;;;;17.10;5.00;;;;;;;4.93;100.00;100123.72;5001374;28;20486;-85
2023/02/01 07:18:02;;;;;;;17.43;4.13;;;;;;;4.93;100.00;100129.03;5002718;28;20456;-84
2023/02/01 07:20:28;;;;;;;12.93;3.90;;;;;;;5.06;100.00;100136.00;5000747;28;20476;-84
2023/02/01 07:22:58;;;;;;;12.00;3.73;;;;;;;5.06;100.00;100145.78;5002181;28;20460;-83
2023/02/01 07:25:24;;;;;;;14.60;3.63;;;;;;;5.15;100.00;100149.56;5002078;28;20456;-84
2023/02/01 07:27:51;;;;;;;16.47;4.10;;;;;;;5.05;100.00;100157.31;5001297;28;20487;-84
2023/02/01 07:30:18;;;;;;;9.13;3.40;;;;;;;5.07;100.00;100158.09;5002128;28;20480;-84
2023/02/01 07:32:45;;;;;;;17.87;4.20;;;;;;;5.14;100.00;100155.81;5002263;28;20487;-84
2023/02/01 07:35:13;;;;;;;11.77;4.10;;;;;;;5.14;100.00;100151.38;5002926;28;20475;-85
2023/02/01 07:37:40;;;;;;;14.23;3.50;;;;;;;5.11;100.00;100148.13;5022022;28;20469;-84
2023/02/01 07:40:11;;;;;;;16.13;4.13;;;;;;;5.18;100.00;100155.50;5020615;28;20459;-84
2023/02/01 07:42:37;;;;;;;18.43;4.93;;;;;;;5.32;100.00;100143.09;4987263;28;20468;-83
2023/02/01 07:45:05;;;;;;;16.90;3.60;;;;;;;5.29;100.00;100165.34;5002377;28;20522;-83
2023/02/01 07:47:32;;;;;;;16.30;4.67;;;;;;;5.24;100.00;100160.38;5001583;28;20478;-86
2023/02/01 07:49:58;;;;;;;23.17;4.67;;;;;;;5.31;100.00;100163.44;5000942;28;20498;-84
2023/02/01 07:52:28;;;;;;;20.30;5.90;;;;;;;5.26;100.00;100162.94;5001429;28;20522;-83
2023/02/01 07:54:55;;;;;;;20.10;4.07;;;;;;;5.19;100.00;100167.81;5002131;28;20526;-83
2023/02/01 07:57:22;;;;;;;9.60;2.97;;;;;;;5.26;100.00;100161.13;5000798;28;20488;-84
2023/02/01 08:02:32;;;;;;;15.03;3.90;;;;;;;5.28;100.00;100172.47;5001962;28;20818;-84
2023/02/01 08:04:59;;;;;;;15.87;5.47;;;;;;;5.39;100.00;100165.53;5001194;28;20455;-84
2023/02/01 08:07:27;;;;;;;13.70;3.70;;;;;;;5.27;100.00;100161.97;5006800;28;20483;-82
2023/02/01 08:09:53;;;;;;;15.87;4.93;;;;;;;5.22;100.00;100170.22;5002386;28;20440;-83
2023/02/01 08:12:20;;;;;;;12.90;3.50;;;;;;;5.38;100.00;100163.84;5001153;28;20679;-82
2023/02/01 08:14:47;;;;;;;13.57;5.10;;;;;;;5.41;100.00;100185.69;5002552;28;20518;-81
2023/02/01 08:17:13;;;;;;;19.13;4.27;;;;;;;5.44;100.00;100182.81;5002084;28;20506;-82
2023/02/01 08:19:40;;;;;;;11.63;3.87;;;;;;;5.63;100.00;100195.59;5001643;28;20466;-81
2023/02/01 08:22:07;;;;;;;16.53;5.10;;;;;;;5.77;100.00;100175.19;5001756;28;21019;-81
2023/02/01 08:24:35;;;;;;;21.87;4.10;;;;;;;5.80;100.00;100197.06;5002385;28;20766;-82
2023/02/01 08:27:02;;;;;;;18.87;4.00;;;;;;;5.84;100.00;100192.38;5003310;28;20487;-81
2023/02/01 08:29:29;;;;;;;14.50;4.47;;;;;;;5.84;100.00;100179.09;5006505;28;20431;-81
2023/02/01 08:31:56;;;;;;;14.13;3.43;;;;;;;5.88;100.00;100193.81;5005357;28;20472;-80
2023/02/01 08:34:22;;;;;;;12.77;4.00;;;;;;;5.61;100.00;100189.56;5004981;28;20495;-82
2023/02/01 08:36:51;;;;;;;20.70;3.43;;;;;;;5.70;100.00;100190.72;5005447;28;20549;-82
2023/02/01 08:39:18;;;;;;;15.90;4.33;;;;;;;6.00;100.00;100178.84;5006255;28;20923;-81
2023/02/01 08:42:50;;;;;;;14.90;4.77;;;;;;;6.11;100.00;100189.53;5004898;28;20494;-81
2023/02/01 08:44:34;;;;;;;23.53;5.20;;;;;;;5.66;100.00;100171.53;5005656;28;20444;-81
2023/02/01 08:47:01;;;;;;;12.10;3.53;;;;;;;5.94;100.00;100172.16;5005184;28;21012;-81
2023/02/01 08:49:27;;;;;;;16.23;4.33;;;;;;;6.02;100.00;100169.84;5004793;28;20451;-81
2023/02/01 08:51:54;;;;;;;18.73;4.37;;;;;;;5.97;100.00;100179.94;5005108;28;20502;-83
2023/02/01 08:54:21;;;;;;;15.47;3.90;;;;;;;5.98;100.00;100178.13;5005881;28;20493;-80
2023/02/01 08:56:49;;;;;;;21.60;4.47;;;;;;;5.98;100.00;100180.78;5004459;28;20537;-82
2023/02/01 08:59:16;;;;;;;13.20;3.43;;;;;;;6.13;100.00;100189.44;5005542;28;20619;-81
2023/02/01 09:01:43;;;;;;;15.00;4.67;;;;;;;6.13;100.00;100169.03;5005661;28;20506;-81
2023/02/01 09:04:09;;;;;;;12.10;3.83;;;;;;;6.13;100.00;100178.81;5004932;28;20495;-81
2023/02/01 09:06:36;;;;;;;14.73;3.30;;;;;;;6.22;100.00;100175.47;5004900;28;20684;-82
2023/02/01 09:09:03;;;;;;;11.13;3.90;;;;;;;6.27;100.00;100185.72;5005659;28;20455;-82
2023/02/01 09:11:30;;;;;;;19.90;4.33;;;;;;;6.34;100.00;100182.50;5004160;28;20500;-82
2023/02/01 09:13:58;;;;;;;17.67;4.90;;;;;;;6.71;100.00;100171.72;5005915;28;21052;-82
2023/02/01 09:16:24;;;;;;;19.93;4.40;;;;;;;6.81;100.00;100166.56;5004908;28;21071;-81
2023/02/01 09:18:51;;;;;;;14.30;3.20;;;;;;;6.90;100.00;100171.16;5004949;28;21014;-83
2023/02/01 09:21:18;;;;;;;10.40;3.93;;;;;;;6.44;100.00;100160.56;5004323;28;20480;-81
2023/02/01 09:23:45;;;;;;;15.50;4.07;;;;;;;6.51;100.00;100165.31;5005617;28;20463;-81
2023/02/01 09:26:12;;;;;;;14.03;4.20;;;;;;;6.39;100.00;100177.69;5004305;28;21010;-82
2023/02/01 09:28:38;;;;;;;17.07;3.33;;;;;;;6.33;100.00;100172.84;5005257;28;20528;-81
2023/02/01 09:31:06;;;;;;;10.93;4.17;;;;;;;6.41;100.00;100178.41;5004580;28;20476;-81
2023/02/01 09:33:33;;;;;;;13.30;4.83;;;;;;;6.07;100.00;100180.09;5005278;28;20516;-82
2023/02/01 09:36:01;;;;;;;10.80;4.07;;;;;;;6.28;100.00;100180.28;5004084;28;20544;-84
2023/02/01 09:38:28;;;;;;;15.00;3.53;;;;;;;6.10;100.00;100171.91;5004716;28;20455;-81
2023/02/01 09:40:55;;;;;;;8.53;3.60;;;;;;;6.14;100.00;100176.00;5004147;28;20483;-83
2023/02/01 09:43:31;;;;;;;20.60;4.60;;;;;;;6.16;100.00;100166.16;5005198;28;20479;-82
2023/02/01 09:46:04;;;;;;;21.23;4.63;;;;;;;6.16;100.00;100168.81;5004336;28;20476;-83
2023/02/01 09:48:36;;;;;;;13.80;3.47;;;;;;;6.35;100.00;100167.41;5004043;28;20456;-82
2023/02/01 09:51:06;;;;;;;14.27;4.43;;;;;;;6.16;100.00;100181.22;5004162;28;20480;-82
2023/02/01 09:53:35;;;;;;;18.27;3.90;;;;;;;6.25;100.00;100161.09;5005081;28;20456;-82
2023/02/01 09:56:06;;;;;;;12.00;4.00;;;;;;;6.17;100.00;100167.00;5002622;28;20487;-82
2023/02/01 09:58:35;;;;;;;12.93;4.17;;;;;;;6.52;100.00;100174.94;5004911;28;21367;-82
2023/02/01 10:01:03;;;;;;;13.70;3.67;;;;;;;6.63;100.00;100181.25;5004117;28;20488;-82
2023/02/01 10:03:35;;;;;;;12.23;3.10;;;;;;;6.57;100.00;100175.44;5004901;28;20918;-83
2023/02/01 10:06:11;;;;;;;9.77;3.27;;;;;;;6.72;100.00;100181.41;5003844;28;20503;-83
2023/02/01 10:08:57;;;;;;;23.13;3.87;;;;;;;6.64;100.00;100170.50;5001654;28;20506;-83
2023/02/01 10:11:47;;;;;;;18.53;4.47;;;;;;;6.71;100.00;100158.44;5004058;28;20482;-82
2023/02/01 10:14:31;;;;;;;14.17;3.10;;;;;;;6.86;100.00;100159.09;5004791;28;20433;-83
2023/02/01 10:17:02;;;;;;;10.00;4.00;;;;;;;6.96;100.00;100154.75;5003689;28;20487;-81
2023/02/01 10:19:39;;;;;;;13.33;3.97;;;;;;;7.10;100.00;100148.34;5004617;28;20444;-83
2023/02/01 10:22:09;;;;;;;10.53;4.20;;;;;;;6.76;100.00;100139.50;5004093;28;20479;-82
2023/02/01 10:24:42;;;;;;;16.20;3.60;;;;;;;6.81;100.00;100142.66;5003293;28;20433;-83
2023/02/01 10:27:15;;;;;;;13.23;3.40;;;;;;;6.70;100.00;100146.16;5019528;28;20518;-82
2023/02/01 10:29:43;;;;;;;16.40;4.83;;;;;;;6.57;100.00;100148.88;5023221;28;20458;-81
2023/02/01 10:32:15;;;;;;;15.00;3.77;;;;;;;6.68;100.00;100150.72;5009135;28;20507;-82
2023/02/01 10:34:44;;;;;;;16.20;4.20;;;;;;;6.81;100.00;100147.97;5004159;28;20489;-81
2023/02/01 10:37:19;;;;;;;11.17;3.27;;;;;;;6.65;100.00;100144.78;5002940;28;20499;-81
2023/02/01 10:39:48;;;;;;;18.10;3.80;;;;;;;6.72;100.00;100136.25;5004287;28;20502;-80
2023/02/01 10:42:15;;;;;;;10.07;3.67;;;;;;;6.75;100.00;100157.25;5003645;28;20481;-81
2023/02/01 10:44:45;;;;;;;10.00;3.00;;;;;;;6.64;100.00;100151.91;5003829;28;20886;-81
2023/02/01 10:47:12;;;;;;;12.87;3.50;;;;;;;6.65;100.00;100150.97;5002889;28;20544;-82
2023/02/01 10:49:44;;;;;;;14.17;4.10;;;;;;;6.73;100.00;100147.72;5002574;28;20461;-80
2023/02/01 10:52:15;;;;;;;6.60;3.90;;;;;;;6.46;100.00;100154.19;5002630;28;20542;-82
2023/02/01 10:54:41;;;;;;;8.23;3.10;;;;;;;6.70;100.00;100143.50;5004031;28;20436;-81
2023/02/01 10:57:09;;;;;;;19.70;3.87;;;;;;;6.84;100.00;100142.41;5003195;28;20532;-81
2023/02/01 10:59:37;;;;;;;19.67;3.57;;;;;;;6.64;100.00;100130.66;5002007;28;20500;-82
2023/02/01 11:02:16;;;;;;;14.03;3.53;;;;;;;6.62;100.00;100140.56;5003103;28;20559;-81
2023/02/01 11:04:44;;;;;;;19.97;4.20;;;;;;;6.73;100.00;100137.91;5003803;28;20456;-82
2023/02/01 11:07:17;;;;;;;11.93;4.30;;;;;;;6.62;100.00;100137.91;5000987;28;20475;-81
2023/02/01 11:09:50;;;;;;;9.90;3.60;;;;;;;6.48;100.00;100112.41;5002245;28;20461;-82
2023/02/01 11:12:27;;;;;;;16.67;4.20;;;;;;;6.31;100.00;100111.03;4998837;28;21063;-82
2023/02/01 11:14:58;;;;;;;9.03;3.20;;;;;;;6.38;100.00;100106.09;4996748;28;20456;-82
2023/02/01 11:17:28;;;;;;;13.17;3.60;;;;;;;6.56;100.00;100095.88;4999570;28;20499;-82
2023/02/01 11:20:06;;;;;;;12.77;3.87;;;;;;;6.46;100.00;100097.53;5001523;28;20507;-83
2023/02/01 11:22:33;;;;;;;11.83;4.33;;;;;;;6.46;100.00;100071.84;4987204;28;20453;-83
2023/02/01 11:25:00;;;;;;;13.30;4.00;;;;;;;6.62;100.00;100083.94;4999264;28;20476;-83
2023/02/01 11:27:28;;;;;;;13.80;3.67;;;;;;;6.75;100.00;100089.97;5000800;28;20487;-82
2023/02/01 11:29:57;;;;;;;10.50;3.10;;;;;;;6.56;100.00;100080.81;5000898;28;20456;-81
2023/02/01 11:32:24;;;;;;;10.90;2.80;;;;;;;6.56;100.00;100082.59;5000959;28;20486;-83
2023/02/01 11:34:54;;;;;;;8.33;3.70;;;;;;;6.46;100.00;100069.19;4999478;28;20468;-81
2023/02/01 11:37:25;;;;;;;9.67;3.90;;;;;;;6.54;100.00;100048.19;4995522;28;20509;-83
2023/02/01 11:39:56;;;;;;;11.13;3.70;;;;;;;6.63;100.00;100067.91;4993488;28;21003;-83
2023/02/01 11:42:23;;;;;;;13.83;3.97;;;;;;;6.50;100.00;100051.22;4994695;28;20547;-83
2023/02/01 11:44:50;;;;;;;10.13;3.00;;;;;;;6.38;100.00;100045.03;4992570;28;20461;-82
2023/02/01 11:47:27;;;;;;;12.87;4.00;;;;;;;6.51;100.00;100040.47;4992642;28;20472;-83
2023/02/01 11:49:55;;;;;;;12.13;3.57;;;;;;;6.57;100.00;100036.47;4992915;28;20510;-83